Carmen, Oklahoma
Current Conditions -  °F | °C
As of 11:35 PM on Wednesday 17 Dec 2014 (Local Time) from KAVK Reporting Station
Haze Haze  
Wind Chill: 26°   Ceiling: 300
Heat Index: 32°   Visibility: 2.5mi
Dew Point: 32°   Wind: 7mph
Humidity: 100%   Direction: 110°ESE
Pressure: 30.14"   Gusts: NA
Location:  36.58°N, 98.46°W
Report Text: KAVK 180535Z AUTO 11006KT 2 1/2SM BR OVC003 00/00 A3014 RMK AO2
Loading
Personal Weather Stations






























Interactive Weather Map New forecast layout! Learn more

10-Day Weather Forecast

Advertisements
Track Severe Weather on mobile